Time;durP1;ratioP1;P1;durP2;ratioP2;P2;SDS_P1;SDS_P2;PMS_P1;PMS_P2;Temp;Humidity;BMP_temperature;BMP_pressure;BME280_temperature;BME280_humidity;BME280_pressure;Samples;Min_cycle;Max_cycle;Signal;HPM_P1;HPM_P2
2022/01/07 00:00:55;;;;;;;15.57;11.53;;;;;;;7.76;81.47;99410.75;5093876;28;20260;-65
2022/01/07 00:03:23;;;;;;;17.67;13.40;;;;;;;7.72;81.82;99422.69;5093119;28;20198;-64
2022/01/07 00:05:49;;;;;;;13.30;11.97;;;;;;;7.63;82.37;99429.88;5093422;28;20226;-64
2022/01/07 00:08:16;;;;;;;14.73;11.90;;;;;;;7.43;82.60;99414.69;5093101;28;20623;-64
2022/01/07 00:10:43;;;;;;;15.40;11.33;;;;;;;7.40;82.47;99430.91;5092979;28;20191;-64
2022/01/07 00:13:11;;;;;;;14.60;11.80;;;;;;;7.48;82.78;99428.19;5093002;28;20704;-64
2022/01/07 00:15:37;;;;;;;12.70;11.37;;;;;;;7.56;82.25;99428.13;5093492;28;20214;-64
2022/01/07 00:18:05;;;;;;;13.27;11.27;;;;;;;7.61;81.53;99428.41;5092885;28;20196;-65
2022/01/07 00:20:33;;;;;;;13.07;11.07;;;;;;;7.60;81.75;99443.44;5092838;28;20731;-64
2022/01/07 00:23:00;;;;;;;12.43;11.23;;;;;;;7.51;81.92;99444.50;5092816;28;20248;-65
2022/01/07 00:25:26;;;;;;;12.43;11.13;;;;;;;7.53;81.72;99436.41;5092992;28;20187;-65
2022/01/07 00:27:53;;;;;;;11.70;10.50;;;;;;;7.56;81.34;99447.44;5092996;28;20259;-65
2022/01/07 00:30:21;;;;;;;14.43;11.67;;;;;;;7.40;81.34;99446.75;5092743;28;20214;-65
2022/01/07 00:32:48;;;;;;;17.30;11.77;;;;;;;7.57;82.10;99459.66;5092650;28;20724;-65
2022/01/07 00:35:18;;;;;;;14.13;11.23;;;;;;;7.37;82.35;99455.03;5092908;28;20248;-65
2022/01/07 00:37:46;;;;;;;12.47;10.80;;;;;;;7.37;82.10;99462.94;5092432;28;20276;-65
2022/01/07 00:40:14;;;;;;;15.67;11.93;;;;;;;7.28;82.33;99474.56;5092474;28;20233;-65
2022/01/07 00:42:41;;;;;;;71.30;14.13;;;;;;;7.12;82.50;99474.69;5092550;28;20240;-65
2022/01/07 00:45:09;;;;;;;12.37;10.97;;;;;;;7.01;82.93;99469.78;5092947;28;20643;-65
2022/01/07 00:47:36;;;;;;;14.57;10.43;;;;;;;6.92;83.75;99469.03;5092647;28;20248;-65
2022/01/07 00:50:03;;;;;;;13.90;10.10;;;;;;;6.86;83.28;99484.75;5092650;28;20654;-65
2022/01/07 00:52:33;;;;;;;11.87;10.47;;;;;;;6.87;83.40;99481.94;5092598;28;20194;-65
2022/01/07 00:54:59;;;;;;;13.87;9.97;;;;;;;6.86;83.41;99490.00;5092301;28;20193;-65
2022/01/07 00:57:26;;;;;;;11.20;10.07;;;;;;;6.81;83.97;99495.81;5092119;28;20247;-65
2022/01/07 00:59:53;;;;;;;11.77;10.17;;;;;;;6.73;84.09;99505.59;5092536;28;20191;-65
2022/01/07 01:02:20;;;;;;;10.13;9.10;;;;;;;6.76;84.07;99505.22;5093101;28;20612;-65
2022/01/07 01:04:46;;;;;;;11.00;9.90;;;;;;;6.73;84.13;99502.94;5092438;28;20248;-64
2022/01/07 01:07:14;;;;;;;11.30;10.17;;;;;;;6.77;84.05;99509.53;5092384;28;20246;-64
2022/01/07 01:09:43;;;;;;;10.13;9.07;;;;;;;6.72;84.09;99501.28;5092448;28;20195;-64
2022/01/07 01:12:11;;;;;;;10.30;9.33;;;;;;;6.70;83.57;99516.47;5092406;28;20195;-65
2022/01/07 01:14:38;;;;;;;11.00;9.93;;;;;;;6.70;84.22;99511.19;5092062;28;20197;-64
2022/01/07 01:17:06;;;;;;;29.50;10.00;;;;;;;6.54;84.34;99500.69;5091959;28;20346;-65
2022/01/07 01:19:33;;;;;;;10.27;9.27;;;;;;;6.63;83.84;99504.94;5091995;28;20723;-65
2022/01/07 01:21:59;;;;;;;11.13;10.03;;;;;;;6.64;83.97;99501.31;5091998;28;20195;-65
2022/01/07 01:24:26;;;;;;;12.07;9.60;;;;;;;6.63;84.09;99504.94;5095991;28;20731;-64
2022/01/07 01:26:54;;;;;;;10.23;8.50;;;;;;;6.60;84.29;99500.00;5096461;28;20196;-65
2022/01/07 01:29:22;;;;;;;11.13;9.43;;;;;;;6.58;84.17;99502.00;5096160;28;20196;-65
2022/01/07 01:31:49;;;;;;;10.17;9.10;;;;;;;6.59;84.49;99508.91;5096909;28;20195;-65
2022/01/07 01:34:16;;;;;;;10.07;9.00;;;;;;;6.59;83.94;99509.75;5095969;28;20748;-65
2022/01/07 01:36:44;;;;;;;9.63;8.63;;;;;;;6.71;83.33;99515.47;5095925;28;20271;-65
2022/01/07 01:39:12;;;;;;;9.00;8.13;;;;;;;6.72;83.14;99519.75;5096006;28;20195;-64
2022/01/07 01:41:39;;;;;;;13.30;8.77;;;;;;;6.67;83.22;99512.38;5096165;28;20230;-64
2022/01/07 01:44:07;;;;;;;8.80;7.93;;;;;;;6.80;82.87;99517.09;5096179;28;20245;-65
2022/01/07 01:46:34;;;;;;;10.67;8.00;;;;;;;6.79;82.99;99518.09;5095817;28;20197;-64
2022/01/07 01:49:01;;;;;;;10.93;9.03;;;;;;;6.82;82.86;99521.19;5095741;28;20194;-65
2022/01/07 01:51:28;;;;;;;9.67;8.03;;;;;;;6.85;82.34;99523.50;5095671;28;20196;-64
2022/01/07 01:53:54;;;;;;;8.77;7.97;;;;;;;6.89;82.39;99516.06;5095642;28;20190;-64
2022/01/07 01:56:21;;;;;;;9.67;8.60;;;;;;;6.90;82.25;99518.53;5096401;28;20214;-64
2022/01/07 01:58:48;;;;;;;9.17;8.23;;;;;;;6.85;82.48;99514.75;5095842;28;20187;-64
2022/01/07 02:01:16;;;;;;;10.37;8.30;;;;;;;6.78;82.69;99517.25;5095528;28;20255;-64
2022/01/07 02:03:43;;;;;;;9.53;8.57;;;;;;;6.88;82.45;99515.25;5095751;28;20197;-65
2022/01/07 02:06:10;;;;;;;8.87;8.10;;;;;;;6.82;82.55;99520.38;5095744;28;20248;-64
2022/01/07 02:08:37;;;;;;;9.97;8.90;;;;;;;6.83;83.03;99522.03;5094887;28;20278;-65
2022/01/07 02:11:05;;;;;;;9.60;8.73;;;;;;;6.88;82.15;99524.97;5096520;28;20192;-65
2022/01/07 02:13:32;;;;;;;11.53;8.93;;;;;;;6.84;82.80;99528.94;5095198;28;20201;-65
2022/01/07 02:15:58;;;;;;;12.07;9.53;;;;;;;6.75;83.30;99529.97;5095750;28;20191;-64
2022/01/07 02:18:27;;;;;;;11.13;9.60;;;;;;;6.65;83.65;99518.81;5095516;28;20188;-65
2022/01/07 02:20:55;;;;;;;10.90;9.87;;;;;;;6.71;83.42;99523.41;5095449;28;20256;-65
2022/01/07 02:23:22;;;;;;;10.70;9.00;;;;;;;6.61;83.90;99520.94;5095088;28;20658;-65
2022/01/07 02:25:50;;;;;;;10.67;9.57;;;;;;;6.52;84.35;99523.78;5095415;28;20194;-65
2022/01/07 02:28:17;;;;;;;10.80;9.73;;;;;;;6.48;84.16;99530.38;5095002;28;20726;-65
2022/01/07 02:30:44;;;;;;;8.73;7.93;;;;;;;6.48;84.49;99533.03;5095318;28;20195;-65
2022/01/07 02:33:11;;;;;;;10.33;9.17;;;;;;;6.36;84.85;99534.41;5095218;28;20195;-65
2022/01/07 02:35:38;;;;;;;11.20;10.10;;;;;;;6.39;85.38;99541.97;5095304;28;20195;-65
2022/01/07 02:38:06;;;;;;;10.03;9.10;;;;;;;6.43;85.25;99551.19;5095806;28;20222;-65
2022/01/07 02:40:34;;;;;;;9.83;8.93;;;;;;;6.36;85.14;99544.94;5095201;28;20227;-65
2022/01/07 02:43:01;;;;;;;10.00;9.00;;;;;;;6.40;85.64;99552.34;5094676;28;20248;-65
2022/01/07 02:45:27;;;;;;;12.07;9.17;;;;;;;6.37;85.57;99554.50;5094974;28;20193;-65
2022/01/07 02:47:55;;;;;;;11.53;9.17;;;;;;;6.33;85.58;99556.63;5095446;28;20196;-65
2022/01/07 02:50:25;;;;;;;12.43;9.37;;;;;;;6.38;85.15;99562.25;5094607;28;20244;-65
2022/01/07 02:52:52;;;;;;;10.30;9.17;;;;;;;6.34;85.55;99562.75;5094591;28;20662;-65
2022/01/07 02:55:21;;;;;;;11.40;8.37;;;;;;;6.34;85.45;99562.75;5095304;28;20635;-65
2022/01/07 02:57:48;;;;;;;11.40;8.57;;;;;;;6.40;85.15;99568.16;5095502;28;20221;-65
2022/01/07 03:00:17;;;;;;;9.57;8.83;;;;;;;6.41;85.47;99563.72;5094726;28;20246;-65
2022/01/07 03:02:43;;;;;;;11.07;9.07;;;;;;;6.40;85.21;99562.09;5094637;28;20195;-65
2022/01/07 03:05:10;;;;;;;9.93;8.93;;;;;;;6.41;84.94;99561.91;5094527;28;20265;-65
2022/01/07 03:07:37;;;;;;;9.90;8.97;;;;;;;6.47;85.00;99570.97;5094225;28;20668;-65
2022/01/07 03:10:05;;;;;;;9.80;8.87;;;;;;;6.44;84.66;99566.00;5095062;28;20189;-65
2022/01/07 03:12:33;;;;;;;11.10;9.27;;;;;;;6.43;84.93;99582.84;5094445;28;20199;-65
2022/01/07 03:15:00;;;;;;;9.57;8.60;;;;;;;6.46;84.89;99578.06;5094138;28;20728;-66
2022/01/07 03:17:26;;;;;;;10.13;8.87;;;;;;;6.49;84.95;99576.91;5094635;28;20216;-65
2022/01/07 03:19:53;;;;;;;9.63;8.67;;;;;;;6.49;84.60;99579.53;5094333;28;20260;-65
2022/01/07 03:22:20;;;;;;;9.87;8.87;;;;;;;6.45;84.83;99586.16;5093934;28;20199;-65
2022/01/07 03:24:46;;;;;;;12.90;8.70;;;;;;;6.48;84.62;99594.53;5093786;28;20210;-65
2022/01/07 03:27:13;;;;;;;13.63;9.23;;;;;;;6.52;84.64;99592.38;5094152;28;20199;-65
2022/01/07 03:29:41;;;;;;;12.20;10.00;;;;;;;6.54;84.32;99590.41;5093894;28;20678;-65
2022/01/07 03:32:10;;;;;;;10.80;8.57;;;;;;;6.47;84.53;99594.69;5093992;28;20258;-65
2022/01/07 03:34:36;;;;;;;10.70;9.00;;;;;;;6.56;84.48;99605.09;5093990;28;20191;-65
2022/01/07 03:37:03;;;;;;;11.90;9.37;;;;;;;6.59;84.21;99609.19;5094409;28;20219;-65
2022/01/07 03:39:30;;;;;;;10.30;9.30;;;;;;;6.55;84.52;99613.16;5093777;28;20203;-65
2022/01/07 03:41:57;;;;;;;12.17;9.70;;;;;;;6.48;85.06;99609.53;5093575;28;20224;-65
2022/01/07 03:44:23;;;;;;;10.37;9.37;;;;;;;6.55;84.75;99624.56;5093453;28;20663;-65
2022/01/07 03:46:51;;;;;;;10.30;9.30;;;;;;;6.49;85.44;99613.84;5093190;28;20327;-65
2022/01/07 03:49:18;;;;;;;9.27;8.47;;;;;;;6.41;85.81;99613.84;5093268;28;20675;-64
2022/01/07 03:51:45;;;;;;;11.60;9.63;;;;;;;6.50;85.28;99624.25;5094444;28;20207;-64
2022/01/07 03:54:11;;;;;;;11.30;9.33;;;;;;;6.51;85.17;99632.97;5093262;28;20197;-65
2022/01/07 03:56:38;;;;;;;11.33;9.97;;;;;;;6.49;85.76;99640.22;5093237;28;20647;-65
2022/01/07 03:59:05;;;;;;;14.87;10.53;;;;;;;6.50;85.34;99636.59;5093370;28;20256;-65
2022/01/07 04:01:32;;;;;;;10.33;9.27;;;;;;;6.47;85.22;99647.47;5093234;28;20195;-65
2022/01/07 04:04:00;;;;;;;9.53;8.63;;;;;;;6.46;85.40;99645.81;5093222;28;20248;-65
2022/01/07 04:06:26;;;;;;;10.77;9.67;;;;;;;6.43;85.27;99648.78;5093323;28;20193;-65
2022/01/07 04:08:53;;;;;;;11.37;10.23;;;;;;;6.36;85.32;99647.81;5093631;28;20276;-65
2022/01/07 04:11:20;;;;;;;10.17;8.87;;;;;;;6.41;85.36;99653.44;5093233;28;20191;-66
2022/01/07 04:13:47;;;;;;;9.70;8.80;;;;;;;6.42;84.80;99650.63;5093855;28;20191;-65
2022/01/07 04:16:14;;;;;;;12.30;9.80;;;;;;;6.32;85.76;99649.94;5093503;28;20195;-66
2022/01/07 04:18:41;;;;;;;10.47;9.40;;;;;;;6.32;85.29;99664.97;5093131;28;20219;-66
2022/01/07 04:21:09;;;;;;;10.50;9.40;;;;;;;6.33;85.28;99659.50;5092817;28;20277;-66
2022/01/07 04:23:36;;;;;;;10.50;9.43;;;;;;;6.36;84.93;99667.09;5093132;28;20192;-65
2022/01/07 04:26:02;;;;;;;10.27;8.90;;;;;;;6.30;85.22;99659.03;5092719;28;20199;-65
2022/01/07 04:28:29;;;;;;;11.93;8.93;;;;;;;6.26;85.07;99660.34;5093252;28;20192;-65
2022/01/07 04:30:56;;;;;;;11.00;9.30;;;;;;;6.25;85.13;99666.63;5092792;28;20191;-65
2022/01/07 04:33:26;;;;;;;10.33;8.43;;;;;;;6.28;85.05;99674.19;5092594;28;20659;-65
2022/01/07 04:35:54;;;;;;;17.87;8.80;;;;;;;6.25;85.37;99672.69;5093342;28;20205;-65
2022/01/07 04:38:22;;;;;;;15.03;10.00;;;;;;;6.25;85.30;99679.81;5092691;28;20269;-65
2022/01/07 04:40:50;;;;;;;12.47;9.27;;;;;;;6.31;84.61;99679.13;5092610;28;20238;-65
2022/01/07 04:43:17;;;;;;;11.63;9.33;;;;;;;6.28;85.08;99676.84;5093573;28;20191;-65
2022/01/07 04:45:44;;;;;;;13.80;8.97;;;;;;;6.19;85.17;99675.16;5092674;28;20252;-65
2022/01/07 04:48:11;;;;;;;11.53;9.33;;;;;;;6.24;85.40;99680.78;5092278;28;20735;-65
2022/01/07 04:50:38;;;;;;;9.90;8.90;;;;;;;6.30;85.20;99680.13;5092218;28;20732;-65
2022/01/07 04:53:06;;;;;;;12.43;9.73;;;;;;;6.22;85.48;99685.38;5092738;28;20192;-65
2022/01/07 04:55:37;;;;;;;10.93;9.73;;;;;;;6.21;85.57;99699.56;5092276;28;20196;-65
2022/01/07 04:58:07;;;;;;;13.67;10.90;;;;;;;6.27;84.93;99693.63;5091946;28;20262;-65
2022/01/07 05:00:34;;;;;;;11.97;9.93;;;;;;;6.23;84.54;99695.78;5092498;28;20285;-65
2022/01/07 05:03:01;;;;;;;13.23;10.50;;;;;;;6.25;85.38;99706.16;5092516;28;20244;-65
2022/01/07 05:05:27;;;;;;;16.60;10.47;;;;;;;6.18;85.69;99710.44;5092475;28;20211;-65
2022/01/07 05:07:54;;;;;;;11.83;9.83;;;;;;;6.18;85.36;99713.06;5092945;28;20595;-65
2022/01/07 05:10:21;;;;;;;10.73;8.80;;;;;;;6.21;84.67;99715.41;5092070;28;20666;-65
2022/01/07 05:12:49;;;;;;;13.10;10.77;;;;;;;6.11;85.32;99715.53;5092087;28;20617;-65
2022/01/07 05:15:18;;;;;;;14.53;10.37;;;;;;;6.11;85.12;99720.81;5092020;28;20214;-64
2022/01/07 05:17:45;;;;;;;18.83;10.87;;;;;;;6.14;85.27;99731.03;5092143;28;20219;-65
2022/01/07 05:20:14;;;;;;;13.47;10.67;;;;;;;6.12;85.78;99727.72;5092032;28;20191;-68
2022/01/07 05:22:41;;;;;;;13.10;10.63;;;;;;;6.08;85.45;99731.69;5092562;28;20213;-68
2022/01/07 05:25:09;;;;;;;11.00;9.23;;;;;;;6.06;85.67;99738.09;5091880;28;20202;-68
2022/01/07 05:27:36;;;;;;;11.20;9.83;;;;;;;6.09;85.97;99741.25;5092027;28;20206;-67
2022/01/07 05:30:07;;;;;;;15.97;10.30;;;;;;;6.14;85.59;99740.75;5091902;28;20199;-67
2022/01/07 05:32:33;;;;;;;19.00;11.00;;;;;;;6.06;85.62;99746.00;5091693;28;20235;-68
2022/01/07 05:35:00;;;;;;;16.53;11.87;;;;;;;6.06;85.74;99744.22;5092102;28;20267;-67
2022/01/07 05:37:27;;;;;;;15.83;10.93;;;;;;;6.02;86.49;99753.44;5091726;28;20218;-68
2022/01/07 05:39:56;;;;;;;13.63;10.90;;;;;;;6.09;85.77;99770.28;5097336;28;20183;-67
2022/01/07 05:42:22;;;;;;;13.07;11.13;;;;;;;6.08;85.86;99770.44;5101758;28;20190;-68
2022/01/07 05:44:49;;;;;;;16.83;11.17;;;;;;;6.13;85.87;99776.88;5096899;28;20195;-68
2022/01/07 05:47:17;;;;;;;17.00;11.70;;;;;;;6.12;85.72;99777.03;5091539;28;20731;-68
2022/01/07 05:49:44;;;;;;;14.93;11.23;;;;;;;6.15;85.25;99779.31;5091929;28;20191;-68
2022/01/07 05:52:10;;;;;;;53.53;14.07;;;;;;;6.13;85.29;99781.31;5091434;28;20196;-68
2022/01/07 05:54:37;;;;;;;17.33;11.27;;;;;;;6.17;85.66;99772.09;5092778;28;20192;-67
2022/01/07 05:57:05;;;;;;;17.67;11.57;;;;;;;6.23;85.19;99781.97;5090839;28;20249;-67
2022/01/07 05:59:32;;;;;;;18.20;10.70;;;;;;;6.22;84.94;99775.91;5089693;28;20235;-68
2022/01/07 06:01:58;;;;;;;16.60;11.43;;;;;;;6.16;85.46;99771.25;5091568;28;20222;-68
2022/01/07 06:04:26;;;;;;;13.93;10.73;;;;;;;6.16;85.31;99776.53;5091636;28;20745;-68
2022/01/07 06:06:53;;;;;;;15.23;10.93;;;;;;;6.12;85.02;99774.41;5091872;28;20270;-67
2022/01/07 06:09:20;;;;;;;40.17;13.17;;;;;;;6.16;85.34;99773.09;5093389;28;20195;-68
2022/01/07 06:11:46;;;;;;;14.17;11.10;;;;;;;6.22;84.79;99775.91;5094090;28;20253;-71
2022/01/07 06:14:13;;;;;;;15.47;10.03;;;;;;;6.16;85.41;99773.88;5095120;28;20291;-68
2022/01/07 06:16:40;;;;;;;17.50;11.53;;;;;;;6.13;84.98;99770.75;5095367;28;20261;-68
2022/01/07 06:19:06;;;;;;;20.43;10.87;;;;;;;6.09;85.00;99779.97;5095108;28;20220;-69
2022/01/07 06:21:35;;;;;;;16.27;10.30;;;;;;;6.12;84.87;99784.94;5094886;28;20191;-69
2022/01/07 06:24:01;;;;;;;12.87;10.90;;;;;;;6.22;84.61;99780.34;5095104;28;20195;-68
2022/01/07 06:26:28;;;;;;;17.17;10.47;;;;;;;6.20;84.90;99779.69;5095304;28;20191;-68
2022/01/07 06:28:55;;;;;;;13.33;9.80;;;;;;;6.18;84.23;99787.75;5094680;28;20202;-68
2022/01/07 06:31:21;;;;;;;15.03;11.10;;;;;;;6.22;84.37;99793.53;5107867;28;20195;-71
2022/01/07 06:33:48;;;;;;;12.60;10.30;;;;;;;6.16;84.92;99789.72;5096358;28;20255;-69
2022/01/07 06:36:15;;;;;;;15.93;13.70;;;;;;;6.24;83.73;99789.75;5102370;28;20271;-69
2022/01/07 06:38:43;;;;;;;18.23;12.43;;;;;;;6.35;83.20;99802.63;5094927;28;20214;-68
2022/01/07 06:41:10;;;;;;;18.23;12.43;;;;;;;6.38;82.84;99812.88;5105684;28;20706;-68
2022/01/07 06:43:36;;;;;;;24.27;12.63;;;;;;;6.43;83.08;99815.00;5115322;28;20194;-68
2022/01/07 06:46:03;;;;;;;16.27;10.97;;;;;;;6.49;83.20;99817.00;5115266;28;20194;-68
2022/01/07 06:48:30;;;;;;;15.27;11.47;;;;;;;6.57;83.13;99815.19;5099232;28;20253;-67
2022/01/07 06:50:56;;;;;;;17.57;11.50;;;;;;;6.67;82.74;99817.69;5094726;28;20246;-67
2022/01/07 06:53:23;;;;;;;20.90;11.67;;;;;;;6.80;82.07;99820.66;5094672;28;20255;-68
2022/01/07 06:55:51;;;;;;;16.10;12.30;;;;;;;6.86;81.81;99827.94;5090840;28;20194;-68
2022/01/07 06:58:18;;;;;;;16.03;12.87;;;;;;;6.94;82.01;99822.66;5094656;28;20219;-68
2022/01/07 07:00:44;;;;;;;32.07;23.97;;;;;;;6.94;81.99;99820.84;5093159;28;20258;-69
2022/01/07 07:03:11;;;;;;;31.03;21.13;;;;;;;7.05;81.55;99814.41;5093239;28;20198;-66
2022/01/07 07:05:38;;;;;;;23.80;14.40;;;;;;;6.92;81.04;99816.72;5095251;28;20551;-66
2022/01/07 07:08:05;;;;;;;21.47;12.13;;;;;;;6.94;81.10;99809.47;5114424;28;20198;-63
2022/01/07 07:10:32;;;;;;;20.13;11.37;;;;;;;7.10;80.65;99810.28;5114810;28;20199;-65
2022/01/07 07:13:00;;;;;;;19.03;11.40;;;;;;;7.07;80.86;99815.06;5114073;28;20233;-66
2022/01/07 07:15:26;;;;;;;19.07;13.00;;;;;;;7.08;81.10;99814.91;5114330;28;20667;-66
2022/01/07 07:17:53;;;;;;;23.20;13.70;;;;;;;7.08;81.17;99814.06;5114276;28;20697;-66
2022/01/07 07:20:20;;;;;;;26.63;16.10;;;;;;;7.18;80.82;99812.09;5113367;28;20739;-66
2022/01/07 07:22:46;;;;;;;31.97;19.10;;;;;;;7.29;80.51;99815.22;5113803;28;20265;-66
2022/01/07 07:25:13;;;;;;;26.67;15.73;;;;;;;7.38;80.02;99823.94;5114537;28;20247;-66
2022/01/07 07:27:41;;;;;;;26.77;14.97;;;;;;;7.37;79.10;99823.13;5097036;28;20256;-66
2022/01/07 07:30:11;;;;;;;24.40;12.97;;;;;;;7.44;78.82;99829.41;5093731;28;20203;-66
2022/01/07 07:32:39;;;;;;;26.63;12.23;;;;;;;7.57;78.38;99829.69;5094019;28;20223;-66
2022/01/07 07:36:26;;;;;;;20.57;12.83;;;;;;;7.58;77.92;99830.50;5093940;28;20197;-66
2022/01/07 07:38:00;;;;;;;18.87;11.50;;;;;;;7.61;77.05;99824.91;5091632;28;20223;-66
2022/01/07 07:40:27;;;;;;;28.17;15.33;;;;;;;7.56;77.55;99827.22;5093031;28;20226;-65
2022/01/07 07:42:54;;;;;;;26.20;15.70;;;;;;;7.68;76.87;99837.25;5093696;28;20196;-66
2022/01/07 07:45:22;;;;;;;34.47;13.90;;;;;;;7.69;77.28;99832.81;5091531;28;20617;-66
2022/01/07 07:47:49;;;;;;;18.07;11.93;;;;;;;7.77;77.58;99830.13;5091852;28;20198;-66
2022/01/07 07:50:16;;;;;;;25.43;12.23;;;;;;;7.87;77.19;99830.75;5091333;28;20191;-67
2022/01/07 07:52:43;;;;;;;18.57;11.70;;;;;;;7.97;76.47;99832.19;5091258;28;20195;-66
2022/01/07 07:55:10;;;;;;;31.77;11.43;;;;;;;7.97;76.40;99836.69;5091698;28;20191;-66
2022/01/07 07:57:37;;;;;;;14.20;9.97;;;;;;;7.93;76.54;99835.38;5091608;28;20188;-66
2022/01/07 08:00:06;;;;;;;17.63;10.60;;;;;;;8.07;76.13;99837.28;5092404;28;20276;-66
2022/01/07 08:02:34;;;;;;;22.30;9.90;;;;;;;8.36;75.95;99838.34;5092828;28;20654;-66
2022/01/07 08:05:01;;;;;;;25.03;11.53;;;;;;;8.44;75.68;99837.47;5092611;28;20282;-66
2022/01/07 08:07:28;;;;;;;16.53;11.03;;;;;;;8.64;74.80;99849.28;5093318;28;20248;-66
2022/01/07 08:09:55;;;;;;;17.97;11.20;;;;;;;8.71;73.55;99852.88;5093212;28;20256;-66
2022/01/07 08:12:27;;;;;;;18.03;11.83;;;;;;;8.62;74.27;99854.75;5093760;28;20196;-66
2022/01/07 08:17:39;;;;;;;18.83;11.67;;;;;;;8.56;74.29;99841.38;5090693;28;20182;-66
2022/01/07 08:20:07;;;;;;;15.80;11.33;;;;;;;8.42;74.73;99837.66;5090169;28;20214;-67
2022/01/07 08:22:33;;;;;;;37.53;12.43;;;;;;;8.55;74.95;99842.38;5076517;28;20695;-67
2022/01/07 08:25:00;;;;;;;27.40;11.30;;;;;;;8.67;74.09;99841.00;5085538;28;20626;-67
2022/01/07 08:27:27;;;;;;;15.10;10.83;;;;;;;8.86;74.62;99843.19;5071753;28;20589;-66
2022/01/07 08:29:54;;;;;;;15.87;11.03;;;;;;;9.61;77.20;99844.84;5082923;28;20314;-66
2022/01/07 08:35:07;;;;;;;10.63;9.30;;;;;;;9.97;71.47;99848.44;5089591;28;20603;-66
2022/01/07 08:37:34;;;;;;;13.07;8.87;;;;;;;9.89;69.65;99845.88;5088621;28;20203;-63
2022/01/07 08:40:00;;;;;;;13.63;9.03;;;;;;;9.82;69.76;99834.34;5078848;28;21547;-64
2022/01/07 08:42:27;;;;;;;11.40;8.73;;;;;;;9.64;70.08;99836.53;5113312;28;20247;-63
2022/01/07 08:44:55;;;;;;;26.13;10.53;;;;;;;9.50;70.46;99829.38;5090667;28;20203;-63
2022/01/07 08:47:23;;;;;;;11.27;9.23;;;;;;;9.48;71.23;99826.91;5074437;28;20191;-65
2022/01/07 08:49:51;;;;;;;18.10;10.30;;;;;;;9.44;71.27;99832.75;5092291;28;20289;-64
2022/01/07 08:52:20;;;;;;;13.47;9.77;;;;;;;9.45;70.99;99831.75;5086313;28;20188;-64
2022/01/07 08:54:50;;;;;;;13.03;9.73;;;;;;;9.62;70.77;99835.88;5073906;28;20183;-64
2022/01/07 08:57:17;;;;;;;11.50;8.77;;;;;;;9.61;70.25;99831.59;5090946;28;20227;-64
2022/01/07 08:59:44;;;;;;;13.63;10.17;;;;;;;9.70;69.81;99825.19;5091708;28;20762;-64
2022/01/07 09:02:11;;;;;;;22.03;10.30;;;;;;;9.62;69.72;99839.38;5074902;28;20188;-64
2022/01/07 09:04:37;;;;;;;26.07;10.10;;;;;;;9.55;69.05;99827.00;5071910;28;20192;-64
2022/01/07 09:07:04;;;;;;;61.27;11.70;;;;;;;9.59;69.05;99828.28;5072331;28;20190;-65
2022/01/07 09:09:32;;;;;;;29.17;11.17;;;;;;;9.67;69.10;99825.53;5091744;28;20662;-64
2022/01/07 09:11:59;;;;;;;11.07;9.33;;;;;;;9.73;68.52;99824.84;5092234;28;20199;-64
2022/01/07 09:14:26;;;;;;;41.77;14.43;;;;;;;9.79;68.26;99816.13;5090165;28;20249;-65
2022/01/07 09:16:53;;;;;;;12.93;8.67;;;;;;;9.79;68.37;99821.44;5091548;28;20683;-65
2022/01/07 09:19:19;;;;;;;25.17;9.43;;;;;;;9.76;68.57;99819.97;5090110;28;20620;-65
2022/01/07 09:21:46;;;;;;;16.20;8.80;;;;;;;9.63;68.30;99813.66;5087958;28;20195;-64
2022/01/07 09:24:13;;;;;;;10.97;9.07;;;;;;;9.69;68.22;99812.94;5092058;28;20190;-67
2022/01/07 09:26:41;;;;;;;18.50;9.93;;;;;;;9.81;68.73;99806.16;5091034;28;20191;-64
2022/01/07 09:29:07;;;;;;;11.57;9.33;;;;;;;9.84;68.45;99811.91;5085770;28;20254;-64
2022/01/07 09:31:34;;;;;;;12.23;10.10;;;;;;;9.81;67.96;99806.16;5081393;28;20264;-65
2022/01/07 09:34:01;;;;;;;17.33;11.07;;;;;;;9.88;67.40;99807.06;5091896;28;20274;-65
2022/01/07 09:36:29;;;;;;;21.00;11.03;;;;;;;9.99;67.76;99799.47;5091948;28;20187;-69
2022/01/07 09:38:55;;;;;;;9.90;8.50;;;;;;;10.15;67.54;99803.78;5090992;28;20219;-70
2022/01/07 09:41:22;;;;;;;8.10;7.40;;;;;;;10.33;66.48;99806.84;5090141;28;20276;-71
2022/01/07 09:43:50;;;;;;;12.70;7.20;;;;;;;10.39;66.13;99806.13;5092004;28;20187;-72
2022/01/07 09:46:19;;;;;;;12.07;8.03;;;;;;;10.59;64.90;99802.66;5095467;28;20191;-71
2022/01/07 09:48:46;;;;;;;9.83;8.03;;;;;;;10.74;64.62;99799.94;5096071;28;20191;-71
2022/01/07 09:51:14;;;;;;;12.70;6.97;;;;;;;10.97;64.06;99805.91;5095443;28;20575;-67
2022/01/07 09:53:41;;;;;;;8.27;6.67;;;;;;;11.11;63.34;99807.63;5075579;28;20195;-68
2022/01/07 09:56:08;;;;;;;14.10;7.20;;;;;;;11.28;62.46;99819.69;5095374;28;20188;-68
2022/01/07 09:58:35;;;;;;;233.60;21.17;;;;;;;11.31;62.18;99816.59;5096119;28;20190;-68
2022/01/07 10:01:05;;;;;;;9.57;6.87;;;;;;;11.16;62.78;99821.22;5095357;28;20257;-69
2022/01/07 10:03:38;;;;;;;25.63;7.50;;;;;;;11.36;62.54;99810.72;5093966;28;20253;-68
2022/01/07 10:06:17;;;;;;;7.83;6.17;;;;;;;11.44;61.79;99806.09;5093948;28;20530;-68
2022/01/07 10:08:44;;;;;;;6.57;5.77;;;;;;;11.58;61.10;99815.78;5095268;28;20188;-69
2022/01/07 10:11:14;;;;;;;7.83;6.87;;;;;;;11.47;60.92;99818.97;5094806;28;20636;-71
2022/01/07 10:13:42;;;;;;;8.97;7.13;;;;;;;11.47;60.80;99813.66;5095769;28;20270;-70
2022/01/07 10:16:19;;;;;;;8.90;7.47;;;;;;;11.17;61.51;99812.22;5094770;28;20242;-69
2022/01/07 10:18:47;;;;;;;9.20;7.60;;;;;;;11.04;62.49;99806.78;5095312;28;20610;-68
2022/01/07 10:21:15;;;;;;;10.03;7.60;;;;;;;10.89;62.93;99795.41;5090610;28;20685;-71
2022/01/07 10:23:43;;;;;;;9.93;7.00;;;;;;;10.75;63.79;99806.91;5094643;28;20616;-69
2022/01/07 10:26:15;;;;;;;16.13;8.57;;;;;;;10.63;64.10;99800.47;5095040;28;20284;-69
2022/01/07 10:28:43;;;;;;;11.73;9.43;;;;;;;10.66;63.68;99797.44;5092546;28;20226;-69
2022/01/07 10:31:11;;;;;;;10.27;8.37;;;;;;;10.57;64.90;99787.91;5073099;28;20191;-71
2022/01/07 10:33:41;;;;;;;8.47;7.17;;;;;;;10.64;64.26;99784.34;5075128;28;20207;-68
2022/01/07 10:36:20;;;;;;;8.07;6.93;;;;;;;10.68;64.30;99782.13;5093922;28;20243;-70
2022/01/07 10:38:49;;;;;;;9.00;7.17;;;;;;;10.68;64.19;99779.47;5093578;28;20250;-69
2022/01/07 10:41:16;;;;;;;12.47;8.10;;;;;;;10.64;64.40;99778.19;5093708;28;20275;-69
2022/01/07 10:43:43;;;;;;;7.63;6.90;;;;;;;10.64;64.41;99781.69;5093629;28;20258;-72
2022/01/07 10:46:15;;;;;;;7.37;6.63;;;;;;;10.65;64.43;99777.16;5093589;28;20241;-72
2022/01/07 10:48:46;;;;;;;11.43;7.13;;;;;;;10.65;64.33;99778.00;5093618;28;20249;-69
2022/01/07 10:51:15;;;;;;;6.53;5.77;;;;;;;10.61;64.59;99775.91;5094608;28;20241;-69
2022/01/07 10:53:47;;;;;;;7.13;6.50;;;;;;;10.74;64.10;99774.19;5074092;28;20657;-68
2022/01/07 10:56:15;;;;;;;17.73;8.03;;;;;;;10.85;64.53;99772.88;5073013;28;20242;-69
2022/01/07 10:59:03;;;;;;;8.77;7.87;;;;;;;10.92;63.56;99781.72;5074167;28;20281;-68
2022/01/07 11:01:42;;;;;;;9.07;7.00;;;;;;;11.05;63.52;99776.53;5072286;28;20262;-69
2022/01/07 11:04:13;;;;;;;13.57;6.27;;;;;;;11.21;63.17;99770.09;5071417;28;20186;-69
2022/01/07 11:06:41;;;;;;;15.97;7.40;;;;;;;11.35;62.80;99775.31;5071885;28;20190;-69
2022/01/07 11:09:10;;;;;;;12.33;6.83;;;;;;;11.40;63.14;99778.25;5074169;28;20204;-70
2022/01/07 11:11:45;;;;;;;7.07;6.47;;;;;;;11.49;62.17;99774.41;5074126;28;20194;-71
2022/01/07 11:14:16;;;;;;;10.10;7.40;;;;;;;11.58;61.95;99780.38;5074287;28;20193;-69
2022/01/07 11:16:43;;;;;;;10.20;7.33;;;;;;;11.57;63.60;99768.94;5073859;28;20235;-68
2022/01/07 11:19:12;;;;;;;12.50;7.17;;;;;;;11.50;62.51;99773.38;5074039;28;20277;-68
2022/01/07 11:21:40;;;;;;;57.50;9.77;;;;;;;11.40;62.38;99775.56;5078682;28;20197;-68
2022/01/07 11:24:32;;;;;;;50.93;9.07;;;;;;;11.43;62.50;99775.16;5094164;28;20194;-68
2022/01/07 11:27:00;;;;;;;11.17;7.67;;;;;;;11.46;62.37;99765.97;5093576;28;20203;-69
2022/01/07 11:29:28;;;;;;;10.77;7.93;;;;;;;11.39;62.16;99773.09;5087437;28;20265;-68
2022/01/07 11:31:55;;;;;;;15.60;8.00;;;;;;;11.43;62.44;99769.84;5093617;28;20193;-66
2022/01/07 11:34:26;;;;;;;14.47;8.53;;;;;;;11.45;62.48;99773.16;5090618;28;20193;-69
2022/01/07 11:36:54;;;;;;;20.00;11.37;;;;;;;11.48;62.82;99767.44;5093292;28;20242;-67